sensor_id;sensor_type;location;lat;lon;timestamp;temperature;humidity
26272;DHT22;13997;48.902;12.472;2022-09-16T00:00:36;358.40;2329.60
26272;DHT22;13997;48.902;12.472;2022-09-16T00:03:02;358.40;2329.60
26272;DHT22;13997;48.902;12.472;2022-09-16T00:05:28;358.40;2329.60
26272;DHT22;13997;48.902;12.472;2022-09-16T00:07:54;358.40;2329.60
26272;DHT22;13997;48.902;12.472;2022-09-16T00:10:20;358.40;2329.60
26272;DHT22;13997;48.902;12.472;2022-09-16T00:12:46;358.40;2329.60
26272;DHT22;13997;48.902;12.472;2022-09-16T00:15:12;358.40;2329.60
26272;DHT22;13997;48.902;12.472;2022-09-16T00:17:38;333.70;2329.60
26272;DHT22;13997;48.902;12.472;2022-09-16T00:20:05;333.70;2329.60
26272;DHT22;13997;48.902;12.472;2022-09-16T00:22:30;333.60;2329.60
26272;DHT22;13997;48.902;12.472;2022-09-16T00:24:56;333.60;2329.60
26272;DHT22;13997;48.902;12.472;2022-09-16T00:27:22;333.60;2329.60
26272;DHT22;13997;48.902;12.472;2022-09-16T00:29:47;333.60;2329.60
26272;DHT22;13997;48.902;12.472;2022-09-16T00:32:13;333.60;2329.60
26272;DHT22;13997;48.902;12.472;2022-09-16T00:34:38;333.50;2329.60
26272;DHT22;13997;48.902;12.472;2022-09-16T00:37:05;333.50;2329.60
26272;DHT22;13997;48.902;12.472;2022-09-16T00:39:33;333.50;2329.60
26272;DHT22;13997;48.902;12.472;2022-09-16T00:42:00;333.50;2329.60
26272;DHT22;13997;48.902;12.472;2022-09-16T00:47:33;333.50;2329.60
26272;DHT22;13997;48.902;12.472;2022-09-16T00:50:16;333.40;2329.60
26272;DHT22;13997;48.902;12.472;2022-09-16T00:52:43;333.40;2329.60
26272;DHT22;13997;48.902;12.472;2022-09-16T00:55:12;333.40;2329.60
26272;DHT22;13997;48.902;12.472;2022-09-16T00:57:40;333.30;2329.60
26272;DHT22;13997;48.902;12.472;2022-09-16T01:00:07;333.30;2329.60
26272;DHT22;13997;48.902;12.472;2022-09-16T01:02:35;333.30;2329.60
26272;DHT22;13997;48.902;12.472;2022-09-16T01:05:05;333.30;2329.60
26272;DHT22;13997;48.902;12.472;2022-09-16T01:07:36;333.30;2329.60
26272;DHT22;13997;48.902;12.472;2022-09-16T01:10:04;333.30;2329.60
26272;DHT22;13997;48.902;12.472;2022-09-16T01:12:30;333.30;2329.60
26272;DHT22;13997;48.902;12.472;2022-09-16T01:14:58;333.20;2329.60
26272;DHT22;13997;48.902;12.472;2022-09-16T01:35:02;333.20;2329.60
26272;DHT22;13997;48.902;12.472;2022-09-16T01:43:36;333.10;2329.60
26272;DHT22;13997;48.902;12.472;2022-09-16T01:46:27;333.10;2329.60
26272;DHT22;13997;48.902;12.472;2022-09-16T01:52:12;333.10;2329.60
26272;DHT22;13997;48.902;12.472;2022-09-16T01:57:20;333.10;2329.60
26272;DHT22;13997;48.902;12.472;2022-09-16T01:59:53;333.10;2329.60
26272;DHT22;13997;48.902;12.472;2022-09-16T02:02:26;333.10;2329.60
26272;DHT22;13997;48.902;12.472;2022-09-16T02:04:56;333.10;2329.60
26272;DHT22;13997;48.902;12.472;2022-09-16T02:07:28;333.10;2329.60
26272;DHT22;13997;48.902;12.472;2022-09-16T02:09:55;333.00;2329.60
26272;DHT22;13997;48.902;12.472;2022-09-16T02:12:25;333.10;2329.60
26272;DHT22;13997;48.902;12.472;2022-09-16T02:14:54;333.10;2329.60
26272;DHT22;13997;48.902;12.472;2022-09-16T02:17:24;333.10;2329.60
26272;DHT22;13997;48.902;12.472;2022-09-16T02:19:55;333.00;2329.60
26272;DHT22;13997;48.902;12.472;2022-09-16T02:22:35;333.00;2329.60
26272;DHT22;13997;48.902;12.472;2022-09-16T02:25:04;333.10;2329.60
26272;DHT22;13997;48.902;12.472;2022-09-16T02:27:30;333.10;2329.60
26272;DHT22;13997;48.902;12.472;2022-09-16T02:30:09;333.10;2329.60
26272;DHT22;13997;48.902;12.472;2022-09-16T02:32:39;333.10;2329.60
26272;DHT22;13997;48.902;12.472;2022-09-16T02:35:08;333.20;2329.60
26272;DHT22;13997;48.902;12.472;2022-09-16T02:37:51;333.20;2329.60
26272;DHT22;13997;48.902;12.472;2022-09-16T02:40:36;333.20;2329.60
26272;DHT22;13997;48.902;12.472;2022-09-16T02:43:05;333.20;2329.60
26272;DHT22;13997;48.902;12.472;2022-09-16T02:48:27;333.10;2329.60
26272;DHT22;13997;48.902;12.472;2022-09-16T02:56:12;333.10;2329.60
26272;DHT22;13997;48.902;12.472;2022-09-16T02:58:40;333.00;2329.60
26272;DHT22;13997;48.902;12.472;2022-09-16T03:01:05;333.00;2329.60
26272;DHT22;13997;48.902;12.472;2022-09-16T03:03:31;333.00;2329.60
26272;DHT22;13997;48.902;12.472;2022-09-16T03:06:16;333.00;2329.60
26272;DHT22;13997;48.902;12.472;2022-09-16T03:08:44;333.10;2329.60
26272;DHT22;13997;48.902;12.472;2022-09-16T03:11:24;333.10;2329.60
26272;DHT22;13997;48.902;12.472;2022-09-16T03:28:04;333.40;2329.60
26272;DHT22;13997;48.902;12.472;2022-09-16T03:30:35;333.40;2329.60
26272;DHT22;13997;48.902;12.472;2022-09-16T03:33:08;333.40;2329.60
26272;DHT22;13997;48.902;12.472;2022-09-16T03:35:42;333.40;2329.60
26272;DHT22;13997;48.902;12.472;2022-09-16T03:38:11;333.40;2329.60
26272;DHT22;13997;48.902;12.472;2022-09-16T03:40:38;333.40;2329.60
26272;DHT22;13997;48.902;12.472;2022-09-16T03:43:11;333.40;2329.60
26272;DHT22;13997;48.902;12.472;2022-09-16T03:45:37;333.40;2329.60
26272;DHT22;13997;48.902;12.472;2022-09-16T03:48:05;333.50;2329.60
26272;DHT22;13997;48.902;12.472;2022-09-16T03:50:31;333.50;2329.60
26272;DHT22;13997;48.902;12.472;2022-09-16T03:52:56;333.50;2329.60
26272;DHT22;13997;48.902;12.472;2022-09-16T03:55:22;333.50;2329.60
26272;DHT22;13997;48.902;12.472;2022-09-16T03:57:47;333.50;2329.60
26272;DHT22;13997;48.902;12.472;2022-09-16T04:00:13;333.50;2329.60
26272;DHT22;13997;48.902;12.472;2022-09-16T04:02:40;333.50;2329.60
26272;DHT22;13997;48.902;12.472;2022-09-16T04:05:07;333.50;2329.60
26272;DHT22;13997;48.902;12.472;2022-09-16T04:07:33;333.50;2329.60
26272;DHT22;13997;48.902;12.472;2022-09-16T04:09:59;333.50;2329.60
26272;DHT22;13997;48.902;12.472;2022-09-16T04:12:25;333.50;2329.60
26272;DHT22;13997;48.902;12.472;2022-09-16T04:14:51;333.60;2329.60
26272;DHT22;13997;48.902;12.472;2022-09-16T04:17:16;333.50;2329.60
26272;DHT22;13997;48.902;12.472;2022-09-16T04:19:42;333.50;2329.60
26272;DHT22;13997;48.902;12.472;2022-09-16T04:22:07;333.40;2329.60
26272;DHT22;13997;48.902;12.472;2022-09-16T04:24:33;333.40;2329.60
26272;DHT22;13997;48.902;12.472;2022-09-16T04:26:59;333.40;2329.60
26272;DHT22;13997;48.902;12.472;2022-09-16T04:29:24;333.30;2329.60
26272;DHT22;13997;48.902;12.472;2022-09-16T04:31:50;333.20;2329.60
26272;DHT22;13997;48.902;12.472;2022-09-16T04:34:15;333.20;2329.60
26272;DHT22;13997;48.902;12.472;2022-09-16T04:36:41;333.10;2329.60
26272;DHT22;13997;48.902;12.472;2022-09-16T04:39:06;333.10;2329.60
26272;DHT22;13997;48.902;12.472;2022-09-16T04:41:32;333.10;2329.60
26272;DHT22;13997;48.902;12.472;2022-09-16T04:43:59;333.00;2329.60
26272;DHT22;13997;48.902;12.472;2022-09-16T04:46:26;333.00;2329.60
26272;DHT22;13997;48.902;12.472;2022-09-16T04:48:54;332.90;2329.60
26272;DHT22;13997;48.902;12.472;2022-09-16T04:51:20;332.90;2329.60
26272;DHT22;13997;48.902;12.472;2022-09-16T04:53:53;332.90;2329.60
26272;DHT22;13997;48.902;12.472;2022-09-16T04:56:22;332.90;2329.60
26272;DHT22;13997;48.902;12.472;2022-09-16T04:58:53;332.90;2329.60
26272;DHT22;13997;48.902;12.472;2022-09-16T05:01:25;333.00;2329.60
26272;DHT22;13997;48.902;12.472;2022-09-16T05:03:53;333.00;2329.60
26272;DHT22;13997;48.902;12.472;2022-09-16T05:06:26;333.00;2329.60
26272;DHT22;13997;48.902;12.472;2022-09-16T05:08:54;333.10;2329.60
26272;DHT22;13997;48.902;12.472;2022-09-16T05:11:25;333.10;2329.60
26272;DHT22;13997;48.902;12.472;2022-09-16T05:13:52;333.10;2329.60
26272;DHT22;13997;48.902;12.472;2022-09-16T05:16:20;333.20;2329.60
26272;DHT22;13997;48.902;12.472;2022-09-16T05:18:48;333.20;2329.60
26272;DHT22;13997;48.902;12.472;2022-09-16T05:21:16;333.20;2329.60
26272;DHT22;13997;48.902;12.472;2022-09-16T05:28:39;333.30;2329.60
26272;DHT22;13997;48.902;12.472;2022-09-16T05:33:33;333.40;2329.60
26272;DHT22;13997;48.902;12.472;2022-09-16T05:36:07;333.40;2329.60
26272;DHT22;13997;48.902;12.472;2022-09-16T05:38:33;333.50;2329.60
26272;DHT22;13997;48.902;12.472;2022-09-16T05:43:25;333.60;2329.60
26272;DHT22;13997;48.902;12.472;2022-09-16T05:45:52;333.60;2329.60
26272;DHT22;13997;48.902;12.472;2022-09-16T05:48:18;333.60;2329.60
26272;DHT22;13997;48.902;12.472;2022-09-16T05:50:54;333.60;2329.60
26272;DHT22;13997;48.902;12.472;2022-09-16T05:53:20;333.70;2329.60
26272;DHT22;13997;48.902;12.472;2022-09-16T05:56:00;333.70;2329.60
26272;DHT22;13997;48.902;12.472;2022-09-16T05:58:27;333.70;2329.60
26272;DHT22;13997;48.902;12.472;2022-09-16T06:03:26;333.70;2329.60
26272;DHT22;13997;48.902;12.472;2022-09-16T06:06:05;333.70;2329.60
26272;DHT22;13997;48.902;12.472;2022-09-16T06:08:33;358.40;2329.60
26272;DHT22;13997;48.902;12.472;2022-09-16T06:11:01;358.40;2329.60
26272;DHT22;13997;48.902;12.472;2022-09-16T06:13:27;358.50;2329.60
26272;DHT22;13997;48.902;12.472;2022-09-16T06:15:53;358.50;2329.60
26272;DHT22;13997;48.902;12.472;2022-09-16T06:18:20;358.60;2329.60
26272;DHT22;13997;48.902;12.472;2022-09-16T06:20:46;358.60;2329.60
26272;DHT22;13997;48.902;12.472;2022-09-16T06:23:12;358.70;2329.60
26272;DHT22;13997;48.902;12.472;2022-09-16T06:25:37;358.70;2329.60
26272;DHT22;13997;48.902;12.472;2022-09-16T06:28:03;358.70;2329.60
26272;DHT22;13997;48.902;12.472;2022-09-16T06:30:29;358.80;2329.60
26272;DHT22;13997;48.902;12.472;2022-09-16T06:32:55;358.90;2329.60
26272;DHT22;13997;48.902;12.472;2022-09-16T06:35:20;358.90;2329.60
26272;DHT22;13997;48.902;12.472;2022-09-16T06:37:46;358.90;2329.60
26272;DHT22;13997;48.902;12.472;2022-09-16T06:40:11;358.90;2329.60
26272;DHT22;13997;48.902;12.472;2022-09-16T06:42:37;358.70;2329.60
26272;DHT22;13997;48.902;12.472;2022-09-16T06:45:04;358.70;2329.60
26272;DHT22;13997;48.902;12.472;2022-09-16T06:47:30;358.70;2329.60
26272;DHT22;13997;48.902;12.472;2022-09-16T06:49:59;358.70;2329.60
26272;DHT22;13997;48.902;12.472;2022-09-16T06:52:25;358.70;2329.60
26272;DHT22;13997;48.902;12.472;2022-09-16T06:54:51;358.70;2329.60
26272;DHT22;13997;48.902;12.472;2022-09-16T06:57:17;358.70;2329.60
26272;DHT22;13997;48.902;12.472;2022-09-16T06:59:45;358.70;2329.60
26272;DHT22;13997;48.902;12.472;2022-09-16T07:02:10;358.70;2329.60
26272;DHT22;13997;48.902;12.472;2022-09-16T07:04:37;358.80;2329.60
26272;DHT22;13997;48.902;12.472;2022-09-16T07:07:02;358.80;2329.60
26272;DHT22;13997;48.902;12.472;2022-09-16T07:09:28;358.90;2329.60
26272;DHT22;13997;48.902;12.472;2022-09-16T07:11:54;359.00;2329.60
26272;DHT22;13997;48.902;12.472;2022-09-16T07:14:20;359.00;2329.60
26272;DHT22;13997;48.902;12.472;2022-09-16T07:16:46;359.10;2329.60
26272;DHT22;13997;48.902;12.472;2022-09-16T07:19:12;359.10;2329.60
26272;DHT22;13997;48.902;12.472;2022-09-16T07:21:38;359.20;2329.60
26272;DHT22;13997;48.902;12.472;2022-09-16T07:24:06;359.20;2329.60
26272;DHT22;13997;48.902;12.472;2022-09-16T07:26:33;359.10;2329.60
26272;DHT22;13997;48.902;12.472;2022-09-16T07:29:01;359.10;2329.60
26272;DHT22;13997;48.902;12.472;2022-09-16T07:31:29;359.20;2329.60
26272;DHT22;13997;48.902;12.472;2022-09-16T07:33:57;384.00;2329.60
26272;DHT22;13997;48.902;12.472;2022-09-16T07:36:26;384.10;2329.60
26272;DHT22;13997;48.902;12.472;2022-09-16T07:38:53;384.20;2329.60
26272;DHT22;13997;48.902;12.472;2022-09-16T07:41:22;384.30;2329.60
26272;DHT22;13997;48.902;12.472;2022-09-16T07:43:49;384.20;2329.60
26272;DHT22;13997;48.902;12.472;2022-09-16T07:46:17;384.20;2329.60
26272;DHT22;13997;48.902;12.472;2022-09-16T07:48:44;384.50;2329.60
26272;DHT22;13997;48.902;12.472;2022-09-16T07:51:12;384.70;2329.60
26272;DHT22;13997;48.902;12.472;2022-09-16T07:53:38;384.80;2329.60
26272;DHT22;13997;48.902;12.472;2022-09-16T07:58:33;384.90;2329.60
26272;DHT22;13997;48.902;12.472;2022-09-16T08:00:59;384.90;2329.60
26272;DHT22;13997;48.902;12.472;2022-09-16T08:03:24;409.60;2355.20
26272;DHT22;13997;48.902;12.472;2022-09-16T08:05:50;409.70;2355.20
26272;DHT22;13997;48.902;12.472;2022-09-16T08:08:16;409.80;2355.20
26272;DHT22;13997;48.902;12.472;2022-09-16T08:10:42;409.70;2355.20
26272;DHT22;13997;48.902;12.472;2022-09-16T08:13:08;409.60;2355.20
26272;DHT22;13997;48.902;12.472;2022-09-16T08:15:34;384.90;2329.60
26272;DHT22;13997;48.902;12.472;2022-09-16T08:17:59;384.80;2329.60
26272;DHT22;13997;48.902;12.472;2022-09-16T08:20:25;384.80;2329.60
26272;DHT22;13997;48.902;12.472;2022-09-16T08:22:51;384.80;2329.60
26272;DHT22;13997;48.902;12.472;2022-09-16T08:25:17;384.80;2329.60
26272;DHT22;13997;48.902;12.472;2022-09-16T08:27:43;384.70;2329.60
26272;DHT22;13997;48.902;12.472;2022-09-16T08:30:09;384.70;2329.60
26272;DHT22;13997;48.902;12.472;2022-09-16T08:32:35;384.70;2329.60
26272;DHT22;13997;48.902;12.472;2022-09-16T08:35:01;384.80;2329.60
26272;DHT22;13997;48.902;12.472;2022-09-16T08:37:26;384.80;2329.60
26272;DHT22;13997;48.902;12.472;2022-09-16T08:39:52;384.90;2329.60
26272;DHT22;13997;48.902;12.472;2022-09-16T08:42:41;384.80;2329.60
26272;DHT22;13997;48.902;12.472;2022-09-16T08:45:23;384.80;2329.60
26272;DHT22;13997;48.902;12.472;2022-09-16T08:50:25;384.80;2329.60
26272;DHT22;13997;48.902;12.472;2022-09-16T08:52:55;384.70;2329.60
26272;DHT22;13997;48.902;12.472;2022-09-16T08:55:25;384.70;2329.60
26272;DHT22;13997;48.902;12.472;2022-09-16T08:58:22;384.70;2329.60
26272;DHT22;13997;48.902;12.472;2022-09-16T09:00:53;384.80;2329.60
26272;DHT22;13997;48.902;12.472;2022-09-16T09:03:34;384.80;2329.60
26272;DHT22;13997;48.902;12.472;2022-09-16T09:06:05;384.80;2329.60
26272;DHT22;13997;48.902;12.472;2022-09-16T09:08:55;384.80;2329.60
26272;DHT22;13997;48.902;12.472;2022-09-16T09:11:45;384.80;2329.60
26272;DHT22;13997;48.902;12.472;2022-09-16T09:17:43;384.80;2329.60
26272;DHT22;13997;48.902;12.472;2022-09-16T09:28:37;384.70;2329.60
26272;DHT22;13997;48.902;12.472;2022-09-16T09:31:42;384.60;2329.60
26272;DHT22;13997;48.902;12.472;2022-09-16T09:34:25;384.50;2329.60
26272;DHT22;13997;48.902;12.472;2022-09-16T09:42:30;384.60;2329.60
26272;DHT22;13997;48.902;12.472;2022-09-16T09:45:03;384.60;2329.60
26272;DHT22;13997;48.902;12.472;2022-09-16T09:47:36;384.60;2329.60
26272;DHT22;13997;48.902;12.472;2022-09-16T09:50:31;384.70;2329.60
26272;DHT22;13997;48.902;12.472;2022-09-16T09:59:02;384.50;2329.60
26272;DHT22;13997;48.902;12.472;2022-09-16T10:01:33;384.30;2329.60
26272;DHT22;13997;48.902;12.472;2022-09-16T10:03:58;384.40;2329.60
26272;DHT22;13997;48.902;12.472;2022-09-16T10:06:28;384.40;2329.60
26272;DHT22;13997;48.902;12.472;2022-09-16T10:08:56;384.30;2329.60
26272;DHT22;13997;48.902;12.472;2022-09-16T10:11:30;384.30;2329.60
26272;DHT22;13997;48.902;12.472;2022-09-16T10:13:58;384.30;2329.60
26272;DHT22;13997;48.902;12.472;2022-09-16T10:16:31;384.30;2329.60
26272;DHT22;13997;48.902;12.472;2022-09-16T10:19:05;384.30;2329.60
26272;DHT22;13997;48.902;12.472;2022-09-16T10:21:46;384.30;2329.60
26272;DHT22;13997;48.902;12.472;2022-09-16T10:24:36;384.20;2329.60
26272;DHT22;13997;48.902;12.472;2022-09-16T10:27:24;384.20;2329.60
26272;DHT22;13997;48.902;12.472;2022-09-16T10:30:16;384.20;2329.60
26272;DHT22;13997;48.902;12.472;2022-09-16T10:35:19;384.30;2329.60
26272;DHT22;13997;48.902;12.472;2022-09-16T10:37:52;384.30;2329.60
26272;DHT22;13997;48.902;12.472;2022-09-16T10:40:19;384.30;2329.60
26272;DHT22;13997;48.902;12.472;2022-09-16T10:42:47;384.30;2329.60
26272;DHT22;13997;48.902;12.472;2022-09-16T10:47:48;384.20;2329.60
26272;DHT22;13997;48.902;12.472;2022-09-16T10:50:17;384.10;2329.60
26272;DHT22;13997;48.902;12.472;2022-09-16T10:52:45;384.10;2329.60
26272;DHT22;13997;48.902;12.472;2022-09-16T10:55:25;384.00;2329.60
26272;DHT22;13997;48.902;12.472;2022-09-16T10:57:53;359.30;2329.60
26272;DHT22;13997;48.902;12.472;2022-09-16T11:00:21;384.00;2329.60
26272;DHT22;13997;48.902;12.472;2022-09-16T11:05:32;359.30;2329.60
26272;DHT22;13997;48.902;12.472;2022-09-16T11:13:46;359.20;2329.60
26272;DHT22;13997;48.902;12.472;2022-09-16T11:19:35;359.20;2329.60
26272;DHT22;13997;48.902;12.472;2022-09-16T11:30:24;359.30;2329.60
26272;DHT22;13997;48.902;12.472;2022-09-16T11:38:26;359.20;2329.60
26272;DHT22;13997;48.902;12.472;2022-09-16T11:44:05;359.20;2329.60
26272;DHT22;13997;48.902;12.472;2022-09-16T11:56:00;359.30;2329.60
26272;DHT22;13997;48.902;12.472;2022-09-16T11:58:38;359.20;2329.60
26272;DHT22;13997;48.902;12.472;2022-09-16T12:01:30;359.20;2329.60
26272;DHT22;13997;48.902;12.472;2022-09-16T12:04:23;359.30;2329.60
26272;DHT22;13997;48.902;12.472;2022-09-16T12:07:43;359.20;2329.60
26272;DHT22;13997;48.902;12.472;2022-09-16T12:12:22;359.10;2329.60
26272;DHT22;13997;48.902;12.472;2022-09-16T12:14:55;359.10;2329.60
26272;DHT22;13997;48.902;12.472;2022-09-16T12:17:30;359.10;2329.60
26272;DHT22;13997;48.902;12.472;2022-09-16T12:20:18;359.10;2329.60
26272;DHT22;13997;48.902;12.472;2022-09-16T12:22:54;359.00;2329.60
26272;DHT22;13997;48.902;12.472;2022-09-16T12:25:28;359.00;2329.60
26272;DHT22;13997;48.902;12.472;2022-09-16T12:28:04;359.00;2329.60
26272;DHT22;13997;48.902;12.472;2022-09-16T12:30:37;359.10;2329.60
26272;DHT22;13997;48.902;12.472;2022-09-16T12:33:13;359.10;2329.60
26272;DHT22;13997;48.902;12.472;2022-09-16T12:35:53;359.10;2329.60
26272;DHT22;13997;48.902;12.472;2022-09-16T12:38:20;359.10;2329.60
26272;DHT22;13997;48.902;12.472;2022-09-16T12:41:02;359.10;2329.60
26272;DHT22;13997;48.902;12.472;2022-09-16T12:43:49;359.20;2329.60
26272;DHT22;13997;48.902;12.472;2022-09-16T12:49:13;359.20;2329.60
26272;DHT22;13997;48.902;12.472;2022-09-16T12:52:15;359.30;2329.60
26272;DHT22;13997;48.902;12.472;2022-09-16T13:00:57;359.30;2329.60
26272;DHT22;13997;48.902;12.472;2022-09-16T13:03:29;359.30;2329.60
26272;DHT22;13997;48.902;12.472;2022-09-16T13:06:06;359.30;2329.60
26272;DHT22;13997;48.902;12.472;2022-09-16T13:08:38;384.00;2329.60
26272;DHT22;13997;48.902;12.472;2022-09-16T13:11:06;359.30;2329.60
26272;DHT22;13997;48.902;12.472;2022-09-16T13:13:41;359.30;2329.60
26272;DHT22;13997;48.902;12.472;2022-09-16T13:16:08;359.20;2329.60
26272;DHT22;13997;48.902;12.472;2022-09-16T13:18:39;359.20;2329.60
26272;DHT22;13997;48.902;12.472;2022-09-16T13:21:25;359.20;2329.60
26272;DHT22;13997;48.902;12.472;2022-09-16T13:24:01;359.20;2329.60
26272;DHT22;13997;48.902;12.472;2022-09-16T13:26:38;359.20;2329.60
26272;DHT22;13997;48.902;12.472;2022-09-16T13:29:43;359.20;2329.60
26272;DHT22;13997;48.902;12.472;2022-09-16T13:32:36;359.20;2329.60
26272;DHT22;13997;48.902;12.472;2022-09-16T13:37:47;359.20;2329.60
26272;DHT22;13997;48.902;12.472;2022-09-16T13:42:45;359.10;2329.60
26272;DHT22;13997;48.902;12.472;2022-09-16T13:48:18;359.10;2329.60
26272;DHT22;13997;48.902;12.472;2022-09-16T13:50:53;359.20;2329.60
26272;DHT22;13997;48.902;12.472;2022-09-16T13:53:23;359.20;2329.60
26272;DHT22;13997;48.902;12.472;2022-09-16T13:55:50;359.20;2329.60
26272;DHT22;13997;48.902;12.472;2022-09-16T14:01:03;359.30;2329.60
26272;DHT22;13997;48.902;12.472;2022-09-16T14:14:24;359.10;2329.60
26272;DHT22;13997;48.902;12.472;2022-09-16T14:16:52;359.10;2329.60
26272;DHT22;13997;48.902;12.472;2022-09-16T14:19:24;359.10;2329.60
26272;DHT22;13997;48.902;12.472;2022-09-16T14:24:37;359.20;2329.60
26272;DHT22;13997;48.902;12.472;2022-09-16T14:27:04;384.00;2329.60
26272;DHT22;13997;48.902;12.472;2022-09-16T14:29:30;384.20;2329.60
26272;DHT22;13997;48.902;12.472;2022-09-16T14:31:56;384.30;2329.60
26272;DHT22;13997;48.902;12.472;2022-09-16T14:34:32;384.30;2329.60
26272;DHT22;13997;48.902;12.472;2022-09-16T14:36:59;384.40;2329.60
26272;DHT22;13997;48.902;12.472;2022-09-16T14:39:26;384.30;2329.60
26272;DHT22;13997;48.902;12.472;2022-09-16T14:41:59;384.20;2329.60
26272;DHT22;13997;48.902;12.472;2022-09-16T14:44:45;384.20;2329.60
26272;DHT22;13997;48.902;12.472;2022-09-16T14:47:38;384.10;2329.60
26272;DHT22;13997;48.902;12.472;2022-09-16T14:50:07;384.10;2329.60
26272;DHT22;13997;48.902;12.472;2022-09-16T14:52:36;384.20;2329.60
26272;DHT22;13997;48.902;12.472;2022-09-16T14:55:08;384.30;2329.60
26272;DHT22;13997;48.902;12.472;2022-09-16T14:57:38;384.30;2329.60
26272;DHT22;13997;48.902;12.472;2022-09-16T15:00:04;384.30;2329.60
26272;DHT22;13997;48.902;12.472;2022-09-16T15:02:42;384.40;2329.60
26272;DHT22;13997;48.902;12.472;2022-09-16T15:05:59;384.40;2329.60
26272;DHT22;13997;48.902;12.472;2022-09-16T15:08:41;384.50;2329.60
26272;DHT22;13997;48.902;12.472;2022-09-16T15:11:31;384.40;2329.60
26272;DHT22;13997;48.902;12.472;2022-09-16T15:13:57;384.30;2329.60
26272;DHT22;13997;48.902;12.472;2022-09-16T15:16:24;384.30;2329.60
26272;DHT22;13997;48.902;12.472;2022-09-16T15:18:57;384.30;2329.60
26272;DHT22;13997;48.902;12.472;2022-09-16T15:21:29;384.40;2329.60
26272;DHT22;13997;48.902;12.472;2022-09-16T15:23:58;384.50;2329.60
26272;DHT22;13997;48.902;12.472;2022-09-16T15:26:38;384.50;2329.60
26272;DHT22;13997;48.902;12.472;2022-09-16T15:29:12;384.50;2329.60
26272;DHT22;13997;48.902;12.472;2022-09-16T15:31:50;384.50;2329.60
26272;DHT22;13997;48.902;12.472;2022-09-16T15:39:32;384.40;2329.60
26272;DHT22;13997;48.902;12.472;2022-09-16T15:47:30;384.30;2329.60
26272;DHT22;13997;48.902;12.472;2022-09-16T15:50:00;384.30;2329.60
26272;DHT22;13997;48.902;12.472;2022-09-16T15:52:27;384.30;2329.60
26272;DHT22;13997;48.902;12.472;2022-09-16T15:54:57;384.30;2329.60
26272;DHT22;13997;48.902;12.472;2022-09-16T15:57:42;384.20;2329.60
26272;DHT22;13997;48.902;12.472;2022-09-16T16:00:10;384.20;2329.60
26272;DHT22;13997;48.902;12.472;2022-09-16T16:02:56;384.20;2329.60
26272;DHT22;13997;48.902;12.472;2022-09-16T16:05:27;384.20;2329.60
26272;DHT22;13997;48.902;12.472;2022-09-16T16:07:59;384.20;2329.60
26272;DHT22;13997;48.902;12.472;2022-09-16T16:10:28;384.10;2329.60
26272;DHT22;13997;48.902;12.472;2022-09-16T16:12:56;384.10;2329.60
26272;DHT22;13997;48.902;12.472;2022-09-16T16:15:26;384.10;2329.60
26272;DHT22;13997;48.902;12.472;2022-09-16T16:17:56;384.10;2329.60
26272;DHT22;13997;48.902;12.472;2022-09-16T16:20:22;384.20;2329.60
26272;DHT22;13997;48.902;12.472;2022-09-16T16:22:48;384.30;2329.60
26272;DHT22;13997;48.902;12.472;2022-09-16T16:25:14;384.30;2329.60
26272;DHT22;13997;48.902;12.472;2022-09-16T16:27:40;384.30;2329.60
26272;DHT22;13997;48.902;12.472;2022-09-16T16:30:07;384.30;2329.60
26272;DHT22;13997;48.902;12.472;2022-09-16T16:32:36;384.20;2329.60
26272;DHT22;13997;48.902;12.472;2022-09-16T16:35:03;384.10;2329.60
26272;DHT22;13997;48.902;12.472;2022-09-16T16:37:29;384.00;2329.60
26272;DHT22;13997;48.902;12.472;2022-09-16T16:39:55;384.00;2329.60
26272;DHT22;13997;48.902;12.472;2022-09-16T16:42:21;359.30;2329.60
26272;DHT22;13997;48.902;12.472;2022-09-16T16:44:47;359.20;2329.60
26272;DHT22;13997;48.902;12.472;2022-09-16T16:47:13;359.20;2329.60
26272;DHT22;13997;48.902;12.472;2022-09-16T16:49:39;359.10;2329.60
26272;DHT22;13997;48.902;12.472;2022-09-16T16:52:05;359.10;2329.60
26272;DHT22;13997;48.902;12.472;2022-09-16T16:54:31;359.10;2329.60
26272;DHT22;13997;48.902;12.472;2022-09-16T16:56:58;359.10;2329.60
26272;DHT22;13997;48.902;12.472;2022-09-16T16:59:24;359.20;2329.60
26272;DHT22;13997;48.902;12.472;2022-09-16T17:01:52;359.10;2329.60
26272;DHT22;13997;48.902;12.472;2022-09-16T17:04:18;359.10;2329.60
26272;DHT22;13997;48.902;12.472;2022-09-16T17:06:45;359.10;2329.60
26272;DHT22;13997;48.902;12.472;2022-09-16T17:09:11;359.00;2329.60
26272;DHT22;13997;48.902;12.472;2022-09-16T17:11:50;359.00;2329.60
26272;DHT22;13997;48.902;12.472;2022-09-16T17:14:16;358.90;2329.60
26272;DHT22;13997;48.902;12.472;2022-09-16T17:16:41;358.90;2329.60
26272;DHT22;13997;48.902;12.472;2022-09-16T17:19:08;358.80;2329.60
26272;DHT22;13997;48.902;12.472;2022-09-16T17:21:35;358.80;2329.60
26272;DHT22;13997;48.902;12.472;2022-09-16T17:24:01;358.70;2329.60
26272;DHT22;13997;48.902;12.472;2022-09-16T17:26:27;358.70;2329.60
26272;DHT22;13997;48.902;12.472;2022-09-16T17:28:53;358.70;2329.60
26272;DHT22;13997;48.902;12.472;2022-09-16T17:31:25;358.70;2329.60
26272;DHT22;13997;48.902;12.472;2022-09-16T17:34:01;358.70;2329.60
26272;DHT22;13997;48.902;12.472;2022-09-16T17:36:28;358.70;2329.60
26272;DHT22;13997;48.902;12.472;2022-09-16T17:39:05;358.60;2329.60
26272;DHT22;13997;48.902;12.472;2022-09-16T17:41:31;358.60;2329.60
26272;DHT22;13997;48.902;12.472;2022-09-16T17:43:58;358.60;2329.60
26272;DHT22;13997;48.902;12.472;2022-09-16T17:46:25;358.50;2329.60
26272;DHT22;13997;48.902;12.472;2022-09-16T17:48:59;358.50;2329.60
26272;DHT22;13997;48.902;12.472;2022-09-16T17:51:26;358.50;2329.60
26272;DHT22;13997;48.902;12.472;2022-09-16T17:53:52;358.50;2329.60
26272;DHT22;13997;48.902;12.472;2022-09-16T17:56:18;358.50;2329.60
26272;DHT22;13997;48.902;12.472;2022-09-16T17:58:45;358.50;2329.60
26272;DHT22;13997;48.902;12.472;2022-09-16T18:01:15;358.50;2329.60